Time;durP1;ratioP1;P1;durP2;ratioP2;P2;SDS_P1;SDS_P2;PMS_P1;PMS_P2;Temp;Humidity;BMP_temperature;BMP_pressure;BME280_temperature;BME280_humidity;BME280_pressure;Samples;Min_cycle;Max_cycle;Signal;HPM_P1;HPM_P2
2023/05/24 00:02:12;;;;;;;17.17;13.20;;;28.60;95.70;;;;;;1904265;74;21076;-84
2023/05/24 00:04:59;;;;;;;17.42;13.32;;;28.60;95.70;;;;;;1902326;75;21239;-84
2023/05/24 00:07:32;;;;;;;22.98;13.65;;;28.60;95.60;;;;;;1873292;75;21145;-85
2023/05/24 00:10:24;;;;;;;19.90;13.62;;;28.60;95.60;;;;;;1900925;74;21708;-83
2023/05/24 00:12:59;;;;;;;18.80;13.43;;;28.50;95.40;;;;;;1900671;75;21223;-84
2023/05/24 00:15:36;;;;;;;17.70;13.57;;;28.50;95.50;;;;;;1902132;74;21194;-85
2023/05/24 00:21:02;;;;;;;17.73;14.73;;;28.60;95.60;;;;;;1791510;78;21161;-86
2023/05/24 00:23:33;;;;;;;19.98;14.00;;;28.60;95.50;;;;;;1912967;74;21159;-84
2023/05/24 00:26:05;;;;;;;19.27;12.80;;;28.60;95.40;;;;;;1916997;74;21640;-84
2023/05/24 00:28:36;;;;;;;14.68;12.10;;;28.70;95.40;;;;;;1914347;74;21083;-85
2023/05/24 00:31:08;;;;;;;15.90;12.10;;;28.80;95.40;;;;;;1864245;75;21139;-85
2023/05/24 00:33:44;;;;;;;17.27;12.53;;;28.90;95.10;;;;;;1906888;74;21084;-83
2023/05/24 00:36:34;;;;;;;22.25;12.75;;;28.90;94.90;;;;;;1906287;73;21128;-83
2023/05/24 00:39:11;;;;;;;14.18;11.25;;;28.90;94.80;;;;;;1912843;74;21096;-84
2023/05/24 00:41:43;;;;;;;20.27;13.08;;;29.00;94.50;;;;;;1913268;74;21064;-84
2023/05/24 00:44:51;;;;;;;;;;;;;;;;;;;;;
2023/05/24 00:47:05;;;;;;;21.05;13.50;;;29.00;94.40;;;;;;1850423;75;21267;-85
2023/05/24 00:49:58;;;;;;;19.55;12.60;;;29.10;94.50;;;;;;1910768;74;21189;-79
2023/05/24 00:52:30;;;;;;;17.32;12.98;;;29.10;94.40;;;;;;1913219;74;21134;-81
2023/05/24 00:55:02;;;;;;;20.80;12.60;;;29.10;94.40;;;;;;1923690;74;21135;-83
2023/05/24 00:57:53;;;;;;;48.70;16.25;;;29.20;94.50;;;;;;1909404;74;21104;-83
2023/05/24 01:00:16;;;;;;;290.77;40.78;;;29.20;94.60;;;;;;1912341;74;21094;-84
2023/05/24 01:02:50;;;;;;;61.20;20.00;;;29.20;94.80;;;;;;1913138;74;21048;-82
2023/05/24 01:05:25;;;;;;;27.20;16.20;;;29.20;95.00;;;;;;1915337;74;21139;-82
2023/05/24 01:08:21;;;;;;;37.63;17.92;;;29.20;95.20;;;;;;1911135;74;21500;-85
2023/05/24 01:14:31;;;;;;;27.62;17.02;;;29.20;95.40;;;;;;1895369;74;21213;-82
2023/05/24 01:17:08;;;;;;;23.30;17.65;;;29.20;95.70;;;;;;1897740;75;21170;-83
2023/05/24 01:20:00;;;;;;;21.70;17.23;;;29.10;95.80;;;;;;1902923;74;21112;-86
2023/05/24 01:22:58;;;;;;;34.63;18.80;;;29.10;95.70;;;;;;1897307;74;21289;-84
2023/05/24 01:25:51;;;;;;;24.67;17.37;;;29.20;95.80;;;;;;1900393;75;21216;-80
2023/05/24 01:28:25;;;;;;;23.35;18.17;;;29.20;95.80;;;;;;1880425;75;21555;-82
2023/05/24 01:30:57;;;;;;;22.58;17.75;;;29.30;95.70;;;;;;1903771;74;21159;-79
2023/05/24 01:33:33;;;;;;;24.55;17.05;;;29.30;95.50;;;;;;1904926;74;21257;-81
2023/05/24 01:36:21;;;;;;;21.40;17.10;;;29.30;95.60;;;;;;1902388;74;21180;-81
2023/05/24 01:38:58;;;;;;;26.50;16.10;;;29.40;95.40;;;;;;1903515;74;21595;-81
2023/05/24 01:41:47;;;;;;;20.95;17.25;;;29.50;95.40;;;;;;1896575;74;21182;-84
2023/05/24 01:44:21;;;;;;;29.10;18.40;;;29.50;95.10;;;;;;1896778;74;21205;-82
2023/05/24 01:47:06;;;;;;;18.55;14.65;;;29.70;95.00;;;;;;1894647;74;21077;-83
2023/05/24 01:49:40;;;;;;;24.32;16.77;;;29.70;95.00;;;;;;1903204;74;21156;-85
2023/05/24 01:52:31;;;;;;;22.90;14.65;;;29.80;94.80;;;;;;1897813;74;21111;-83
2023/05/24 01:55:01;;;;;;;22.58;15.95;;;29.80;94.60;;;;;;1895277;75;21073;-83
2023/05/24 01:57:34;;;;;;;23.57;16.15;;;29.80;94.40;;;;;;1904411;74;21134;-86
2023/05/24 02:00:26;;;;;;;23.00;16.75;;;29.90;94.40;;;;;;1898494;74;21694;-84
2023/05/24 02:03:08;;;;;;;25.30;16.77;;;29.90;94.30;;;;;;1879093;74;21173;-81
2023/05/24 02:05:44;;;;;;;21.73;14.80;;;29.90;94.30;;;;;;1903058;74;21147;-82
2023/05/24 02:08:16;;;;;;;21.37;14.95;;;30.00;94.40;;;;;;1898457;74;21189;-79
2023/05/24 02:10:47;;;;;;;23.75;16.07;;;30.10;94.10;;;;;;1903725;74;21081;-81
2023/05/24 02:13:18;;;;;;;22.67;16.35;;;30.20;93.90;;;;;;1903446;74;21091;-85
2023/05/24 02:15:52;;;;;;;27.95;15.20;;;30.20;93.70;;;;;;1898429;74;21551;-84
2023/05/24 02:18:23;;;;;;;22.42;15.68;;;30.20;93.70;;;;;;1898081;74;21150;-78
2023/05/24 02:21:06;;;;;;;30.55;22.73;;;30.20;93.90;;;;;;1899804;74;21183;-81
2023/05/24 02:23:53;;;;;;;22.35;14.80;;;30.30;93.70;;;;;;1880206;74;21149;-76
2023/05/24 02:26:26;;;;;;;24.52;15.38;;;30.50;93.50;;;;;;1882235;74;21216;-81
2023/05/24 02:29:05;;;;;;;17.70;14.47;;;30.60;93.20;;;;;;1894466;74;21211;-80
2023/05/24 02:31:38;;;;;;;19.73;14.58;;;30.70;93.00;;;;;;1901136;74;21072;-83
2023/05/24 02:34:17;;;;;;;19.85;13.95;;;30.90;92.90;;;;;;1894489;74;21701;-82
2023/05/24 02:36:48;;;;;;;18.05;13.85;;;31.00;92.60;;;;;;1899839;74;21104;-81
2023/05/24 02:39:19;;;;;;;17.52;13.43;;;31.10;92.20;;;;;;1889187;74;21127;-82
2023/05/24 02:41:50;;;;;;;20.57;15.25;;;31.30;92.00;;;;;;1900225;74;21238;-82
2023/05/24 02:44:22;;;;;;;23.25;15.55;;;31.50;91.50;;;;;;1900054;74;21580;-81
2023/05/24 02:47:03;;;;;;;20.48;14.58;;;31.50;91.40;;;;;;1900324;75;21193;-80
2023/05/24 02:49:37;;;;;;;24.47;14.00;;;31.60;91.20;;;;;;1902484;74;21053;-82
2023/05/24 02:52:14;;;;;;;18.52;14.53;;;31.60;91.20;;;;;;1899869;74;21253;-80
2023/05/24 02:54:42;;;;;;;20.60;14.80;;;31.80;90.90;;;;;;1888969;74;21643;-80
2023/05/24 02:57:13;;;;;;;20.62;13.98;;;32.00;90.60;;;;;;1904079;74;21627;-82
2023/05/24 02:59:44;;;;;;;15.83;14.00;;;32.10;90.30;;;;;;1910351;73;21195;-79
2023/05/24 03:02:16;;;;;;;20.55;14.70;;;32.20;90.00;;;;;;1899920;74;21175;-80
2023/05/24 03:04:47;;;;;;;19.30;14.47;;;32.20;90.00;;;;;;1873538;75;21163;-81
2023/05/24 03:07:19;;;;;;;31.77;17.60;;;32.10;89.70;;;;;;1901537;74;21124;-80
2023/05/24 03:09:50;;;;;;;19.15;13.83;;;32.20;89.70;;;;;;1900968;75;21269;-81
2023/05/24 03:12:24;;;;;;;15.53;13.40;;;32.20;89.60;;;;;;1899574;74;21603;-79
2023/05/24 03:14:55;;;;;;;21.45;13.32;;;32.20;90.00;;;;;;1868402;75;21206;-80
2023/05/24 03:17:27;;;;;;;16.60;12.82;;;32.30;89.30;;;;;;1902617;73;21104;-81
2023/05/24 03:19:58;;;;;;;16.23;11.53;;;32.40;88.30;;;;;;1855434;75;21202;-79
2023/05/24 03:22:29;;;;;;;11.15;9.43;;;32.50;86.90;;;;;;1893822;74;21630;-81
2023/05/24 03:25:01;;;;;;;14.05;10.53;;;32.60;85.30;;;;;;1902739;75;21045;-83
2023/05/24 03:27:32;;;;;;;13.22;9.40;;;32.70;84.80;;;;;;1888251;74;21206;-82
2023/05/24 03:30:06;;;;;;;15.58;9.98;;;32.80;82.90;;;;;;1893738;74;21160;-82
2023/05/24 03:32:40;;;;;;;13.88;9.75;;;32.90;83.10;;;;;;1893227;75;21183;-80
2023/05/24 03:35:12;;;;;;;12.80;9.88;;;32.90;83.40;;;;;;1895702;74;21190;-79
2023/05/24 03:37:49;;;;;;;11.75;10.35;;;33.00;82.80;;;;;;1897856;74;21073;-80
2023/05/24 03:40:21;;;;;;;14.13;9.88;;;33.20;84.10;;;;;;1854391;75;21172;-77
2023/05/24 03:42:54;;;;;;;12.45;9.60;;;33.20;83.40;;;;;;1891908;75;21143;-80
2023/05/24 03:45:28;;;;;;;;;;;33.30;83.70;;;;;;1898559;74;21195;-84
2023/05/24 03:48:09;;;;;;;14.90;10.63;;;33.40;82.00;;;;;;1898169;74;20446;-82
2023/05/24 03:50:40;;;;;;;12.90;10.05;;;33.40;83.00;;;;;;1889626;74;21156;-81
2023/05/24 03:53:11;;;;;;;12.05;10.45;;;33.50;83.20;;;;;;1879609;75;21209;-80
2023/05/24 03:55:43;;;;;;;16.80;10.75;;;33.50;82.20;;;;;;1891235;75;21128;-80
2023/05/24 03:58:18;;;;;;;13.15;10.75;;;33.60;82.60;;;;;;1899525;75;21245;-85
2023/05/24 04:00:50;;;;;;;13.60;10.20;;;33.70;81.90;;;;;;1893669;75;21078;-81
2023/05/24 04:03:21;;;;;;;11.30;9.30;;;33.80;81.00;;;;;;1860361;75;21179;-83
2023/05/24 04:05:54;;;;;;;13.48;9.48;;;33.80;81.50;;;;;;1905382;74;21257;-79
2023/05/24 04:08:27;;;;;;;16.37;9.88;;;33.80;81.60;;;;;;1895360;74;21136;-81
2023/05/24 04:10:59;;;;;;;15.45;9.63;;;34.00;80.30;;;;;;1895423;74;21152;-83
2023/05/24 04:13:31;;;;;;;21.87;10.38;;;34.00;79.20;;;;;;1891477;74;21164;-82
2023/05/24 04:16:03;;;;;;;12.55;9.45;;;34.00;79.10;;;;;;1896427;74;21241;-80
2023/05/24 04:18:34;;;;;;;17.60;9.55;;;34.10;79.70;;;;;;1901512;74;21148;-79
2023/05/24 04:21:18;;;;;;;13.32;9.78;;;34.10;79.70;;;;;;1899591;74;21213;-81
2023/05/24 04:24:05;;;;;;;13.60;9.28;;;34.20;79.10;;;;;;1876941;74;21782;-80
2023/05/24 04:26:38;;;;;;;13.88;8.83;;;34.30;76.10;;;;;;1905594;73;21087;-75
2023/05/24 04:29:09;;;;;;;18.98;9.98;;;34.30;76.50;;;;;;1901792;74;21106;-75
2023/05/24 04:31:44;;;;;;;12.80;10.38;;;34.30;77.40;;;;;;1898811;75;21123;-77
2023/05/24 04:34:32;;;;;;;;;;;34.40;76.80;;;;;;1902597;75;21190;-77
2023/05/24 04:37:07;;;;;;;14.55;10.32;;;34.40;77.10;;;;;;1887616;75;20536;-78
2023/05/24 04:39:39;;;;;;;14.50;10.30;;;34.40;76.60;;;;;;1904566;75;21131;-77
2023/05/24 04:42:11;;;;;;;12.20;9.50;;;34.30;76.80;;;;;;1904402;75;21080;-76
2023/05/24 04:44:46;;;;;;;12.10;9.58;;;34.30;77.70;;;;;;1897608;74;21227;-76
2023/05/24 04:47:17;;;;;;;11.55;9.85;;;34.30;77.60;;;;;;1901450;74;21618;-79
2023/05/24 04:56:23;;;;;;;17.82;10.48;;;34.20;78.70;;;;;;1798470;76;21205;-82
2023/05/24 04:58:57;;;;;;;15.35;10.48;;;34.10;79.20;;;;;;1901394;74;21152;-80
2023/05/24 05:01:28;;;;;;;10.98;9.40;;;34.10;79.40;;;;;;1897884;74;21178;-78
2023/05/24 05:04:17;;;;;;;16.17;10.50;;;34.20;77.20;;;;;;1893988;75;21622;-80
2023/05/24 05:25:49;;;;;;;12.55;9.55;;;35.20;73.00;;;;;;1819014;77;21205;-79
2023/05/24 05:28:20;;;;;;;12.13;9.10;;;35.20;73.30;;;;;;1823099;77;21179;-83
2023/05/24 05:30:59;;;;;;;11.78;8.88;;;35.30;72.20;;;;;;1830554;77;21218;-82
2023/05/24 05:33:27;;;;;;;13.83;9.23;;;35.30;72.40;;;;;;1821595;77;21100;-81
2023/05/24 05:35:59;;;;;;;11.55;10.13;;;35.30;72.70;;;;;;1833271;77;21120;-83
2023/05/24 05:38:30;;;;;;;12.23;9.08;;;35.40;73.00;;;;;;1834997;78;21175;-87
2023/05/24 05:41:02;;;;;;;20.97;10.08;;;35.50;71.60;;;;;;1832287;78;21155;-80
2023/05/24 05:43:51;;;;;;;33.78;11.35;;;35.50;72.30;;;;;;1831910;76;21154;-80
2023/05/24 05:46:22;;;;;;;16.27;10.08;;;35.60;73.00;;;;;;1835871;76;21154;-83
2023/05/24 05:48:54;;;;;;;12.18;9.20;;;35.60;71.50;;;;;;1828017;77;21229;-82
2023/05/24 05:51:37;;;;;;;13.62;10.35;;;35.60;72.30;;;;;;1823092;76;21126;-82
2023/05/24 05:54:12;;;;;;;17.35;10.03;;;35.60;72.80;;;;;;1826842;76;21199;-80
2023/05/24 05:56:46;;;;;;;15.53;10.27;;;35.50;71.30;;;;;;1843462;77;21182;-78
2023/05/24 05:59:12;;;;;;;12.53;9.85;;;35.50;73.10;;;;;;1819815;77;22271;-78
2023/05/24 06:01:49;;;;;;;11.65;9.90;;;35.50;71.80;;;;;;1829557;77;21132;-78
2023/05/24 06:04:18;;;;;;;16.32;10.23;;;35.50;72.20;;;;;;1822460;77;21247;-79
2023/05/24 06:06:50;;;;;;;12.93;9.93;;;35.50;73.20;;;;;;1830063;77;21201;-81
2023/05/24 06:09:22;;;;;;;12.13;9.10;;;35.50;72.70;;;;;;1827338;77;21151;-80
2023/05/24 06:11:53;;;;;;;13.38;9.90;;;35.50;71.80;;;;;;1833925;77;21185;-80
2023/05/24 06:14:30;;;;;;;15.23;9.88;;;35.50;71.80;;;;;;1824129;77;21688;-79
2023/05/24 06:17:01;;;;;;;15.63;9.95;;;35.40;72.70;;;;;;1835236;77;21191;-79
2023/05/24 06:19:32;;;;;;;10.90;9.80;;;35.30;72.70;;;;;;1827928;77;21198;-80
2023/05/24 06:22:04;;;;;;;18.82;10.95;;;35.30;72.30;;;;;;1823131;78;21772;-79
2023/05/24 06:24:35;;;;;;;18.75;10.48;;;35.20;71.80;;;;;;1821333;77;21508;-78
2023/05/24 06:30:40;;;;;;;11.18;9.55;;;35.10;70.80;;;;;;1795786;78;21096;-79
2023/05/24 06:33:31;;;;;;;11.38;8.73;;;35.00;71.20;;;;;;1778317;79;21186;-83
2023/05/24 06:36:03;;;;;;;11.18;9.55;;;34.80;70.20;;;;;;1778180;79;21244;-85
2023/05/24 06:38:35;;;;;;;14.43;9.43;;;34.70;71.80;;;;;;1805316;78;21418;-78
2023/05/24 06:41:10;;;;;;;13.72;9.50;;;34.70;72.40;;;;;;1795906;78;21277;-80
2023/05/24 06:43:46;;;;;;;11.90;9.08;;;34.70;71.80;;;;;;1778336;79;21191;-78
2023/05/24 06:46:17;;;;;;;14.15;8.98;;;34.70;72.50;;;;;;1804622;77;21144;-78
2023/05/24 06:48:48;;;;;;;11.33;9.63;;;34.80;71.70;;;;;;1802107;77;21226;-78
2023/05/24 06:51:19;;;;;;;19.00;10.75;;;34.80;72.80;;;;;;1772947;79;21173;-78
2023/05/24 06:53:52;;;;;;;16.48;9.95;;;34.90;72.20;;;;;;1795364;78;21147;-80
2023/05/24 06:56:27;;;;;;;11.08;8.35;;;35.10;70.30;;;;;;1792791;78;21268;-80
2023/05/24 06:58:59;;;;;;;14.03;8.95;;;35.20;67.50;;;;;;1802404;78;21262;-81
2023/05/24 07:04:12;;;;;;;9.90;7.30;;;35.30;66.10;;;;;;1798011;78;21238;-80
2023/05/24 07:06:45;;;;;;;6.60;5.95;;;35.30;64.80;;;;;;1770417;80;21225;-81
2023/05/24 07:09:20;;;;;;;9.58;7.60;;;35.20;61.80;;;;;;1806164;77;21104;-83
2023/05/24 07:11:52;;;;;;;12.07;8.18;;;35.30;66.40;;;;;;1801144;78;21144;-82
2023/05/24 07:14:24;;;;;;;11.38;7.47;;;35.30;67.10;;;;;;1806702;78;21143;-80
2023/05/24 07:16:59;;;;;;;11.75;7.97;;;35.40;67.80;;;;;;1807150;78;21235;-81
2023/05/24 07:19:32;;;;;;;11.83;7.92;;;35.50;66.30;;;;;;1724599;81;21662;-81
2023/05/24 07:22:08;;;;;;;9.90;8.28;;;35.50;66.60;;;;;;1806324;77;21155;-79
2023/05/24 07:24:54;;;;;;;12.07;8.48;;;35.50;65.60;;;;;;1760008;80;21319;-78
2023/05/24 07:27:25;;;;;;;11.97;8.63;;;35.40;66.80;;;;;;1812835;77;21132;-79
2023/05/24 07:30:10;;;;;;;;;;;;;;;;;;;;;
2023/05/24 07:32:40;;;;;;;10.85;8.40;;;35.40;67.70;;;;;;1774063;79;22682;-77
2023/05/24 07:35:13;;;;;;;15.28;9.33;;;35.40;67.00;;;;;;1804352;78;21207;-77
2023/05/24 07:37:44;;;;;;;13.55;8.90;;;35.50;68.40;;;;;;1788788;79;21217;-77
2023/05/24 07:40:22;;;;;;;12.75;8.68;;;35.50;67.20;;;;;;1796972;78;21179;-77
2023/05/24 07:43:27;;;;;;;12.23;9.45;;;35.50;68.20;;;;;;1763611;78;21402;-76
2023/05/24 07:45:59;;;;;;;11.75;9.05;;;35.60;68.10;;;;;;1810529;77;21159;-77
2023/05/24 07:48:31;;;;;;;13.78;9.10;;;35.60;68.30;;;;;;1801691;78;21481;-77
2023/05/24 07:51:03;;;;;;;10.18;9.13;;;35.60;67.70;;;;;;1803722;78;21116;-81
2023/05/24 07:53:36;;;;;;;12.50;9.75;;;35.60;68.10;;;;;;1808380;78;21202;-76
2023/05/24 07:56:11;;;;;;;13.22;9.00;;;35.40;68.60;;;;;;1793501;78;21199;-76
2023/05/24 07:58:45;;;;;;;11.08;8.30;;;35.30;69.10;;;;;;1798618;78;21704;-78
2023/05/24 08:01:36;;;;;;;16.60;8.73;;;35.10;70.30;;;;;;1806283;78;21192;-79
2023/05/24 08:04:20;;;;;;;22.13;8.30;;;34.80;70.90;;;;;;1808584;78;21681;-82
2023/05/24 08:07:11;;;;;;;19.73;9.65;;;34.40;73.10;;;;;;1805707;78;21592;-81
2023/05/24 08:09:47;;;;;;;12.68;8.55;;;34.10;75.10;;;;;;1802603;78;21187;-81
2023/05/24 08:12:32;;;;;;;;;;;;;;;;;;;;;
2023/05/24 08:15:07;;;;;;;8.88;5.15;;;33.50;75.40;;;;;;1804628;77;22072;-83
2023/05/24 08:17:58;;;;;;;9.98;4.42;;;32.90;75.20;;;;;;1763604;79;21219;-86
2023/05/24 08:24:47;;;;;;;11.40;5.90;;;32.20;75.20;;;;;;2018232;70;22348;-83
2023/05/24 08:26:51;;;;;;;13.95;6.40;;;32.10;76.90;;;;;;1965189;71;21088;-84
2023/05/24 08:30:00;;;;;;;;;;;;;;;;;;;;;
2023/05/24 08:32:43;;;;;;;16.10;8.75;;;32.40;78.20;;;;;;1984645;71;21181;-83
2023/05/24 08:35:56;;;;;;;;;;;;;;;;;;;;;
2023/05/24 08:38:30;;;;;;;10.85;8.65;;;32.50;81.00;;;;;;1833418;76;21288;-85
2023/05/24 08:41:17;;;;;;;11.65;8.88;;;32.50;80.90;;;;;;1840356;76;21241;-85
2023/05/24 08:46:50;;;;;;;11.73;8.25;;;32.40;81.90;;;;;;1820215;74;21213;-83
2023/05/24 08:52:27;;;;;;;17.50;9.60;;;32.50;81.50;;;;;;1970969;71;21597;-82
2023/05/24 08:55:01;;;;;;;10.38;8.05;;;32.60;81.40;;;;;;1966367;71;21152;-83
2023/05/24 08:57:40;;;;;;;12.28;7.83;;;32.60;81.30;;;;;;1968045;71;21116;-83
2023/05/24 09:00:18;;;;;;;25.02;11.85;;;32.80;81.50;;;;;;1979665;71;21223;-83
2023/05/24 09:02:50;;;;;;;18.02;8.90;;;32.80;81.00;;;;;;1978160;71;21129;-82
2023/05/24 09:05:22;;;;;;;13.10;9.53;;;32.90;80.60;;;;;;1955868;71;21107;-83
2023/05/24 09:07:54;;;;;;;16.15;10.08;;;33.00;81.30;;;;;;1974179;71;21217;-82
2023/05/24 09:10:37;;;;;;;11.28;9.08;;;33.10;81.00;;;;;;1975565;71;21137;-82
2023/05/24 09:13:15;;;;;;;14.03;9.45;;;33.10;81.20;;;;;;1971434;71;21244;-84
2023/05/24 09:15:50;;;;;;;13.32;9.68;;;33.20;81.10;;;;;;1967047;71;21629;-83
2023/05/24 09:18:28;;;;;;;15.23;10.20;;;33.20;81.20;;;;;;1965153;71;21152;-83
2023/05/24 09:21:04;;;;;;;15.05;10.00;;;33.30;81.50;;;;;;1970661;71;21489;-82
2023/05/24 09:23:36;;;;;;;17.52;9.28;;;33.30;80.60;;;;;;1976166;71;21159;-82
2023/05/24 09:26:13;;;;;;;12.75;8.85;;;33.30;80.40;;;;;;1974599;71;21151;-83
2023/05/24 09:28:46;;;;;;;16.65;8.75;;;33.30;80.40;;;;;;1955599;71;21045;-82
2023/05/24 09:31:24;;;;;;;14.33;9.13;;;33.30;80.90;;;;;;1974451;71;21160;-82
2023/05/24 09:33:56;;;;;;;14.50;9.30;;;33.30;81.50;;;;;;1983365;71;21173;-81
2023/05/24 09:36:31;;;;;;;27.80;10.60;;;33.30;81.50;;;;;;1974185;71;21073;-81
2023/05/24 09:39:08;;;;;;;22.82;10.45;;;33.30;81.50;;;;;;1968470;71;21108;-81
2023/05/24 09:41:41;;;;;;;19.75;10.50;;;33.30;81.40;;;;;;1973333;71;21042;-80
2023/05/24 09:44:17;;;;;;;27.35;12.40;;;33.20;81.70;;;;;;1979375;71;21210;-81
2023/05/24 09:46:51;;;;;;;15.45;10.13;;;33.10;81.80;;;;;;1980366;71;21166;-83
2023/05/24 09:49:27;;;;;;;13.08;9.00;;;33.10;81.50;;;;;;1968790;71;21128;-82
2023/05/24 09:52:28;;;;;;;16.75;9.78;;;33.10;81.80;;;;;;1969480;71;21443;-82
2023/05/24 09:55:14;;;;;;;15.10;9.13;;;33.10;82.30;;;;;;1952796;72;21171;-82
2023/05/24 09:57:51;;;;;;;15.95;8.73;;;33.10;81.90;;;;;;1975064;71;21213;-80
2023/05/24 10:00:24;;;;;;;12.50;8.85;;;33.10;81.60;;;;;;1977036;71;21115;-81
2023/05/24 10:03:13;;;;;;;14.25;8.80;;;33.10;80.60;;;;;;1985490;71;21141;-81
2023/05/24 10:05:45;;;;;;;15.32;8.78;;;33.10;79.70;;;;;;1973048;71;21753;-83
2023/05/24 10:08:18;;;;;;;15.25;8.73;;;33.10;79.20;;;;;;1976080;71;22051;-83
2023/05/24 10:10:56;;;;;;;15.77;8.33;;;33.00;79.20;;;;;;1965785;71;21157;-82
2023/05/24 10:13:29;;;;;;;11.18;8.45;;;33.00;78.60;;;;;;1978897;71;21584;-82
2023/05/24 10:16:10;;;;;;;9.45;7.53;;;32.90;77.90;;;;;;1878171;75;21185;-81
2023/05/24 10:18:38;;;;;;;10.38;8.18;;;32.80;79.00;;;;;;1967266;71;21138;-84
2023/05/24 10:21:20;;;;;;;10.82;8.30;;;32.80;77.90;;;;;;1979134;71;21158;-84
2023/05/24 10:23:54;;;;;;;9.90;8.03;;;32.80;77.90;;;;;;1968154;71;21147;-84
2023/05/24 10:26:25;;;;;;;21.97;10.88;;;32.80;77.90;;;;;;1971793;71;21765;-81
2023/05/24 10:29:04;;;;;;;14.93;8.85;;;32.80;77.80;;;;;;1971911;71;21196;-81
2023/05/24 10:31:40;;;;;;;9.95;7.90;;;32.80;77.60;;;;;;1973499;70;21357;-84
2023/05/24 10:34:12;;;;;;;17.25;8.53;;;32.70;77.60;;;;;;1963706;70;21164;-82
2023/05/24 10:36:45;;;;;;;14.13;9.23;;;32.60;77.30;;;;;;1947894;71;21150;-83
2023/05/24 10:39:18;;;;;;;13.15;9.95;;;32.60;77.70;;;;;;1970228;71;21148;-80
2023/05/24 10:41:49;;;;;;;13.28;9.10;;;32.50;77.60;;;;;;1965977;71;21197;-81
2023/05/24 10:44:21;;;;;;;14.38;8.20;;;32.50;78.00;;;;;;1976828;71;21554;-84
2023/05/24 10:47:12;;;;;;;15.72;9.63;;;32.40;78.10;;;;;;1974677;71;21111;-84
2023/05/24 10:49:51;;;;;;;13.40;7.50;;;32.40;78.20;;;;;;1966956;71;21119;-82
2023/05/24 10:52:28;;;;;;;11.08;8.40;;;32.40;78.30;;;;;;1973048;71;21110;-85
2023/05/24 10:55:08;;;;;;;11.40;8.05;;;32.40;78.50;;;;;;1960584;71;21586;-83
2023/05/24 10:57:40;;;;;;;10.53;8.88;;;32.40;78.50;;;;;;1977059;71;21153;-82
2023/05/24 11:00:26;;;;;;;12.78;9.28;;;32.40;79.00;;;;;;1979099;71;21237;-82
2023/05/24 11:03:04;;;;;;;17.50;10.15;;;32.40;79.20;;;;;;1961490;71;21502;-82
2023/05/24 11:05:37;;;;;;;17.10;9.70;;;32.40;79.40;;;;;;1978089;71;21092;-82
2023/05/24 11:08:09;;;;;;;12.23;8.90;;;32.40;79.30;;;;;;1937948;72;21176;-82
2023/05/24 11:10:40;;;;;;;20.50;10.23;;;32.30;79.50;;;;;;1971820;71;21201;-81
2023/05/24 11:13:14;;;;;;;12.65;9.48;;;32.30;79.70;;;;;;1971803;71;21159;-80
2023/05/24 11:15:54;;;;;;;20.80;11.03;;;32.30;79.70;;;;;;1977928;71;21129;-84
2023/05/24 11:18:26;;;;;;;19.30;9.85;;;32.30;80.00;;;;;;1978390;71;21115;-81
2023/05/24 11:21:00;;;;;;;18.02;10.13;;;32.30;79.60;;;;;;1974468;72;21178;-82
2023/05/24 11:23:32;;;;;;;20.02;10.43;;;32.30;79.50;;;;;;1971488;71;21188;-81
2023/05/24 11:26:04;;;;;;;12.88;9.18;;;32.30;79.70;;;;;;1960716;71;21258;-81
2023/05/24 11:28:37;;;;;;;15.78;9.70;;;32.20;79.40;;;;;;1960442;71;21162;-80
2023/05/24 11:31:12;;;;;;;18.75;9.75;;;32.20;79.50;;;;;;1971189;71;21254;-81
2023/05/24 11:33:43;;;;;;;16.12;10.75;;;32.20;79.70;;;;;;1973874;71;21623;-83
2023/05/24 11:36:14;;;;;;;19.60;11.10;;;32.20;80.00;;;;;;1983382;71;21178;-81
2023/05/24 11:38:48;;;;;;;18.10;11.93;;;32.20;80.20;;;;;;1961556;71;21109;-80
2023/05/24 11:41:20;;;;;;;22.58;12.33;;;32.20;79.30;;;;;;1966978;72;21151;-81
2023/05/24 11:43:51;;;;;;;35.52;13.45;;;32.20;79.50;;;;;;1968194;71;21115;-85
2023/05/24 11:46:29;;;;;;;20.32;13.38;;;32.20;80.30;;;;;;1972208;71;21159;-85
2023/05/24 11:49:07;;;;;;;18.75;12.45;;;32.20;79.70;;;;;;1962604;71;21108;-85
2023/05/24 11:51:38;;;;;;;20.23;12.25;;;32.20;79.50;;;;;;1977303;71;21132;-85
2023/05/24 11:54:23;;;;;;;17.30;12.18;;;32.20;79.30;;;;;;1978382;71;21192;-85
2023/05/24 11:56:55;;;;;;;17.75;10.90;;;32.20;79.20;;;;;;1970691;71;21540;-86
2023/05/24 11:59:46;;;;;;;14.65;11.30;;;32.20;79.20;;;;;;1975375;71;21167;-85
2023/05/24 12:02:34;;;;;;;17.48;12.03;;;32.20;79.40;;;;;;1965942;71;21125;-85
2023/05/24 12:05:12;;;;;;;24.37;15.68;;;32.20;79.30;;;;;;1975828;71;21080;-86
2023/05/24 12:07:47;;;;;;;;;;;32.20;79.40;;;;;;1975746;71;22386;-86
2023/05/24 12:10:32;;;;;;;21.77;15.13;;;32.20;79.40;;;;;;1964760;71;20296;-84
2023/05/24 12:13:41;;;;;;;23.15;15.40;;;32.20;79.30;;;;;;1962545;71;21151;-84
2023/05/24 12:22:36;;;;;;;30.43;18.92;;;32.10;81.40;;;;;;1985413;70;21120;-84
2023/05/24 12:25:08;;;;;;;25.20;17.90;;;32.10;81.60;;;;;;1929063;73;21194;-85
2023/05/24 12:27:46;;;;;;;20.85;16.85;;;32.10;82.90;;;;;;1965566;71;21182;-86
2023/05/24 12:30:20;;;;;;;23.57;16.87;;;32.10;84.10;;;;;;1967486;70;21560;-86
2023/05/24 12:32:56;;;;;;;23.70;15.45;;;32.10;83.20;;;;;;1962348;70;21128;-85
2023/05/24 12:35:31;;;;;;;21.35;14.55;;;32.00;83.30;;;;;;1973137;71;21209;-86
2023/05/24 12:38:02;;;;;;;22.30;16.20;;;32.10;83.50;;;;;;1961146;70;21132;-86
2023/05/24 12:40:34;;;;;;;18.45;15.80;;;32.10;83.80;;;;;;1972448;70;21137;-85
2023/05/24 12:43:06;;;;;;;23.62;15.98;;;32.00;83.80;;;;;;1975609;71;21508;-86
2023/05/24 12:45:37;;;;;;;24.95;17.42;;;32.00;83.90;;;;;;1967164;70;21084;-86
2023/05/24 12:48:08;;;;;;;26.95;16.30;;;32.00;83.90;;;;;;1978214;71;21127;-86
2023/05/24 12:50:39;;;;;;;20.43;16.07;;;32.00;84.30;;;;;;1973673;71;21148;-85
2023/05/24 12:53:11;;;;;;;23.27;18.45;;;32.00;84.30;;;;;;1971125;71;21048;-87
2023/05/24 12:55:55;;;;;;;;;;;;;;;;;;;;;
2023/05/24 12:58:36;;;;;;;21.95;16.55;;;32.00;85.20;;;;;;1960731;71;21167;-86
2023/05/24 13:01:12;;;;;;;23.25;18.27;;;31.90;85.00;;;;;;1953392;71;21144;-85
2023/05/24 13:03:43;;;;;;;28.55;21.62;;;31.90;85.30;;;;;;1931921;71;21596;-85
2023/05/24 13:06:14;;;;;;;35.03;20.02;;;31.90;86.10;;;;;;1970348;71;21268;-86
2023/05/24 13:08:48;;;;;;;29.90;19.42;;;31.90;86.30;;;;;;1961591;71;21151;-86
2023/05/24 13:11:18;;;;;;;29.50;18.95;;;31.90;86.60;;;;;;1969901;71;21097;-86
2023/05/24 13:13:50;;;;;;;24.67;16.30;;;31.80;86.10;;;;;;1966077;71;21124;-86
2023/05/24 13:16:21;;;;;;;17.87;14.65;;;31.80;85.70;;;;;;1958058;71;21217;-84
2023/05/24 13:19:02;;;;;;;22.10;13.83;;;31.80;85.10;;;;;;1957111;70;21173;-85
2023/05/24 13:22:18;;;;;;;17.75;14.53;;;31.90;84.20;;;;;;1957151;71;21073;-85
2023/05/24 13:25:12;;;;;;;19.42;13.22;;;31.90;84.30;;;;;;1964193;71;21174;-83
2023/05/24 13:27:43;;;;;;;19.40;13.70;;;31.90;83.90;;;;;;1949005;72;21113;-85
2023/05/24 13:30:16;;;;;;;18.77;13.15;;;31.80;83.80;;;;;;1960348;71;21639;-83
2023/05/24 13:32:47;;;;;;;20.12;13.53;;;31.80;84.00;;;;;;1944109;72;21791;-85
2023/05/24 13:35:18;;;;;;;21.02;13.90;;;31.80;84.20;;;;;;1963895;71;21182;-86
2023/05/24 13:37:51;;;;;;;17.75;13.65;;;31.80;84.40;;;;;;1958140;71;21199;-85
2023/05/24 13:40:27;;;;;;;22.90;15.18;;;31.70;84.30;;;;;;1969785;71;21434;-86
2023/05/24 13:42:58;;;;;;;24.80;15.03;;;31.70;85.30;;;;;;1934254;72;21161;-84
2023/05/24 13:45:32;;;;;;;19.17;13.80;;;31.70;85.90;;;;;;1965091;72;21151;-85
2023/05/24 13:48:06;;;;;;;30.27;13.68;;;31.60;86.30;;;;;;1958303;71;21142;-84
2023/05/24 13:50:39;;;;;;;19.48;12.93;;;31.60;86.60;;;;;;1968582;72;21163;-85
2023/05/24 13:53:10;;;;;;;17.85;12.95;;;31.50;86.70;;;;;;1951610;72;21123;-86
2023/05/24 13:55:42;;;;;;;17.50;12.13;;;31.40;87.20;;;;;;1904650;73;21164;-85
2023/05/24 13:58:26;;;;;;;18.42;11.05;;;31.40;87.40;;;;;;1877110;74;21171;-85
2023/05/24 14:00:57;;;;;;;14.28;10.28;;;31.40;87.10;;;;;;1945850;72;21208;-86
2023/05/24 14:03:29;;;;;;;12.23;9.20;;;31.40;86.80;;;;;;1958841;72;21166;-85
2023/05/24 14:06:00;;;;;;;28.12;10.60;;;31.30;86.70;;;;;;1942562;72;21208;-85
2023/05/24 14:08:32;;;;;;;15.83;9.30;;;31.20;86.90;;;;;;1954192;72;21060;-84
2023/05/24 14:11:18;;;;;;;;;;;;;;;;;;;;;
2023/05/24 14:13:42;;;;;;;12.70;9.15;;;31.20;87.10;;;;;;1929679;73;21116;-85
2023/05/24 14:16:14;;;;;;;10.68;8.48;;;31.20;87.10;;;;;;1934448;72;21704;-85
2023/05/24 14:18:47;;;;;;;11.40;8.43;;;31.10;86.80;;;;;;1945908;72;21376;-86
2023/05/24 14:21:25;;;;;;;12.73;8.58;;;31.10;87.00;;;;;;1967984;72;21112;-83